createdAt,value
2022-09-01T00:00:30.773Z,10.44
2022-09-01T00:02:59.186Z,10.41
2022-09-01T00:05:27.191Z,10.40
2022-09-01T00:07:55.078Z,10.39
2022-09-01T00:10:23.158Z,10.39
2022-09-01T00:12:51.096Z,10.38
2022-09-01T00:15:20.423Z,10.42
2022-09-01T00:17:48.900Z,10.41
2022-09-01T00:20:20.253Z,10.40
2022-09-01T00:22:48.915Z,10.41
2022-09-01T00:25:20.401Z,10.45
2022-09-01T00:27:49.782Z,10.42
2022-09-01T00:30:17.766Z,10.41
2022-09-01T00:32:47.061Z,10.40
2022-09-01T00:35:15.783Z,10.39
2022-09-01T00:37:46.811Z,10.40
2022-09-01T00:40:18.658Z,10.41
2022-09-01T00:42:49.014Z,10.42
2022-09-01T00:45:17.151Z,10.44
2022-09-01T00:47:46.588Z,10.42
2022-09-01T00:50:17.904Z,10.40
2022-09-01T00:52:52.652Z,10.42
2022-09-01T00:55:26.095Z,10.39
2022-09-01T00:57:54.192Z,10.40
2022-09-01T01:00:25.246Z,10.42
2022-09-01T01:02:56.327Z,10.45
2022-09-01T01:05:27.967Z,10.45
2022-09-01T01:07:57.001Z,10.46
2022-09-01T01:10:26.520Z,10.43
2022-09-01T01:12:54.438Z,10.41
2022-09-01T01:15:22.346Z,10.36
2022-09-01T01:17:50.202Z,10.38
2022-09-01T01:20:45.239Z,10.35
2022-09-01T01:23:21.648Z,10.30
2022-09-01T01:25:54.383Z,10.34
2022-09-01T01:28:27.962Z,10.33
2022-09-01T01:30:59.367Z,10.33
2022-09-01T01:33:29.982Z,10.34
2022-09-01T01:35:58.360Z,10.32
2022-09-01T01:38:27.578Z,10.34
2022-09-01T01:40:57.183Z,10.34
2022-09-01T01:43:26.531Z,10.37
2022-09-01T01:45:56.932Z,10.42
2022-09-01T01:48:24.963Z,10.36
2022-09-01T01:50:58.332Z,10.39
2022-09-01T01:53:29.675Z,10.43
2022-09-01T01:56:01.130Z,10.47
2022-09-01T01:58:30.426Z,10.52
2022-09-01T02:00:59.336Z,10.54
2022-09-01T02:03:38.707Z,10.58
2022-09-01T02:06:09.873Z,10.59
2022-09-01T02:08:40.790Z,10.61
2022-09-01T02:11:11.088Z,10.58
2022-09-01T02:13:38.983Z,10.56
2022-09-01T02:16:12.142Z,10.57
2022-09-01T02:18:48.614Z,10.61
2022-09-01T02:21:20.392Z,10.58
2022-09-01T02:23:50.562Z,10.54
2022-09-01T02:26:23.962Z,10.49
2022-09-01T02:28:55.245Z,10.46
2022-09-01T02:31:25.029Z,10.47
2022-09-01T02:33:54.493Z,10.46
2022-09-01T02:36:25.311Z,10.47
2022-09-01T02:38:56.378Z,10.46
2022-09-01T02:41:29.211Z,10.47
2022-09-01T02:43:57.359Z,10.46
2022-09-01T02:46:26.235Z,10.47
2022-09-01T02:48:54.733Z,10.48
2022-09-01T02:51:25.722Z,10.50
2022-09-01T02:53:55.138Z,10.50
2022-09-01T02:56:25.937Z,10.49
2022-09-01T02:58:56.127Z,10.48
2022-09-01T03:01:26.436Z,10.49
2022-09-01T03:03:55.288Z,10.49
2022-09-01T03:06:24.577Z,10.53
2022-09-01T03:08:54.318Z,10.57
2022-09-01T03:11:24.356Z,10.57
2022-09-01T03:13:52.662Z,10.61
2022-09-01T03:16:23.640Z,10.60
2022-09-01T03:18:51.814Z,10.62
2022-09-01T03:21:20.588Z,10.62
2022-09-01T03:23:49.874Z,10.63
2022-09-01T03:26:19.514Z,10.65
2022-09-01T03:28:48.070Z,10.67
2022-09-01T03:31:16.349Z,10.66
2022-09-01T03:33:46.095Z,10.70
2022-09-01T03:36:19.349Z,10.70
2022-09-01T03:38:49.264Z,10.74
2022-09-01T03:41:19.245Z,10.73
2022-09-01T03:43:48.337Z,10.73
2022-09-01T03:46:20.393Z,10.72
2022-09-01T03:48:51.414Z,10.75
2022-09-01T03:51:22.902Z,10.77
2022-09-01T03:53:55.509Z,10.73
2022-09-01T03:56:27.469Z,10.74
2022-09-01T03:58:56.317Z,10.75
2022-09-01T04:01:25.208Z,10.81
2022-09-01T04:03:54.614Z,10.84
2022-09-01T04:06:24.238Z,10.85
2022-09-01T04:08:56.931Z,10.83
2022-09-01T04:11:26.502Z,10.81
2022-09-01T04:13:54.464Z,10.82
2022-09-01T04:16:42.173Z,10.84
2022-09-01T04:19:20.155Z,10.86
2022-09-01T04:21:50.279Z,10.85
2022-09-01T04:24:19.309Z,10.80
2022-09-01T04:26:48.957Z,10.78
2022-09-01T04:29:18.817Z,10.79
2022-09-01T04:31:53.633Z,10.79
2022-09-01T04:34:24.851Z,10.81
2022-09-01T04:36:56.885Z,10.82
2022-09-01T04:39:25.329Z,10.85
2022-09-01T04:41:54.213Z,10.85
2022-09-01T04:44:22.359Z,10.88
2022-09-01T04:46:50.886Z,10.87
2022-09-01T04:49:22.457Z,10.84
2022-09-01T04:51:55.022Z,10.85
2022-09-01T04:54:24.112Z,10.84
2022-09-01T04:56:55.084Z,10.85
2022-09-01T04:59:27.247Z,10.85
2022-09-01T05:02:00.737Z,10.88
2022-09-01T05:04:33.758Z,10.88
2022-09-01T05:07:04.651Z,10.90
2022-09-01T05:09:35.598Z,10.92
2022-09-01T05:12:12.909Z,10.94
2022-09-01T05:14:48.638Z,10.94
2022-09-01T05:17:17.631Z,10.93
2022-09-01T05:19:48.755Z,10.97
2022-09-01T05:22:22.294Z,10.96
2022-09-01T05:24:55.424Z,10.96
2022-09-01T05:27:24.008Z,10.95
2022-09-01T05:29:51.910Z,10.98
2022-09-01T05:32:21.890Z,10.98
2022-09-01T05:34:53.508Z,11.01
2022-09-01T05:37:23.528Z,11.06
2022-09-01T05:39:52.950Z,11.03
2022-09-01T05:42:21.767Z,11.06
2022-09-01T05:44:52.688Z,11.03
2022-09-01T05:47:21.915Z,11.02
2022-09-01T05:49:50.455Z,11.03
2022-09-01T05:52:25.057Z,11.04
2022-09-01T05:54:55.641Z,11.06
2022-09-01T05:57:34.279Z,11.21
2022-09-01T06:00:03.575Z,12.19
2022-09-01T06:02:33.886Z,12.76
2022-09-01T06:05:01.622Z,12.85
2022-09-01T06:07:29.758Z,13.05
2022-09-01T06:10:00.154Z,13.03
2022-09-01T06:12:29.186Z,12.94
2022-09-01T06:14:58.250Z,13.11
2022-09-01T06:17:29.619Z,12.13
2022-09-01T06:19:58.548Z,12.02
2022-09-01T06:22:28.193Z,12.45
2022-09-01T06:25:02.688Z,12.88
2022-09-01T06:27:33.375Z,13.14
2022-09-01T06:30:01.659Z,13.25
2022-09-01T06:32:29.987Z,13.24
2022-09-01T06:35:00.497Z,13.25
2022-09-01T06:37:28.922Z,13.30
2022-09-01T06:39:57.621Z,13.40
2022-09-01T06:42:26.206Z,13.54
2022-09-01T06:44:55.471Z,13.54
2022-09-01T06:47:24.285Z,13.49
2022-09-01T06:49:57.838Z,13.32
2022-09-01T06:52:27.063Z,13.21
2022-09-01T06:54:55.966Z,13.31
2022-09-01T07:00:19.272Z,13.43
2022-09-01T07:02:48.884Z,13.55
2022-09-01T07:08:09.365Z,13.60
2022-09-01T07:11:19.570Z,13.56
2022-09-01T07:13:29.284Z,13.69
2022-09-01T07:18:58.390Z,13.81
2022-09-01T07:22:06.825Z,13.86
2022-09-01T07:24:18.221Z,13.89
2022-09-01T07:26:49.635Z,13.91
2022-09-01T07:29:21.857Z,13.93
2022-09-01T07:34:47.935Z,13.82
2022-09-01T07:38:48.239Z,13.91
2022-09-01T07:45:31.080Z,13.64
2022-09-01T07:48:06.502Z,13.62
2022-09-01T07:51:07.486Z,13.62
2022-09-01T07:53:25.654Z,13.66
2022-09-01T07:55:56.191Z,13.78
2022-09-01T07:58:26.647Z,13.84
2022-09-01T08:00:55.257Z,13.75
2022-09-01T08:03:26.272Z,13.92
2022-09-01T08:05:57.832Z,13.97
2022-09-01T08:08:28.931Z,13.99
2022-09-01T08:11:05.117Z,13.98
2022-09-01T08:13:38.836Z,13.88
2022-09-01T08:16:16.930Z,13.90
2022-09-01T08:18:49.371Z,13.92
2022-09-01T08:21:18.946Z,13.98
2022-09-01T08:23:48.007Z,14.05
2022-09-01T08:26:18.079Z,14.03
2022-09-01T08:28:46.443Z,14.04
2022-09-01T08:31:18.184Z,14.11
2022-09-01T08:33:49.470Z,14.16
2022-09-01T08:36:23.072Z,14.14
2022-09-01T08:38:53.046Z,14.09
2022-09-01T08:41:35.050Z,14.07
2022-09-01T08:44:15.446Z,14.03
2022-09-01T08:46:44.898Z,14.01
2022-09-01T08:49:27.330Z,14.04
2022-09-01T08:52:01.659Z,14.03
2022-09-01T08:54:36.311Z,14.02
2022-09-01T08:57:22.851Z,13.99
2022-09-01T08:59:51.059Z,13.98
2022-09-01T09:02:43.012Z,13.90
2022-09-01T09:05:30.500Z,13.87
2022-09-01T09:08:10.615Z,14.01
2022-09-01T09:10:49.297Z,14.07
2022-09-01T09:13:23.342Z,14.17
2022-09-01T09:16:07.395Z,14.16
2022-09-01T09:18:54.776Z,14.33
2022-09-01T09:21:30.198Z,14.44
2022-09-01T09:24:05.220Z,14.41
2022-09-01T09:26:48.882Z,14.40
2022-09-01T09:29:17.143Z,14.44
2022-09-01T09:31:50.354Z,14.48
2022-09-01T09:34:32.816Z,14.53
2022-09-01T09:37:20.634Z,14.55
2022-09-01T09:40:05.802Z,14.64
2022-09-01T09:42:36.552Z,14.66
2022-09-01T09:45:05.290Z,14.69
2022-09-01T09:47:46.568Z,14.70
2022-09-01T09:50:26.915Z,14.79
2022-09-01T09:53:16.939Z,14.79
2022-09-01T09:55:58.550Z,14.82
2022-09-01T09:58:28.943Z,14.88
2022-09-01T10:01:04.002Z,14.94
2022-09-01T10:03:42.044Z,14.98
2022-09-01T10:06:32.210Z,14.98
2022-09-01T10:09:04.353Z,14.99
2022-09-01T10:11:41.426Z,14.92
2022-09-01T10:14:35.329Z,14.83
2022-09-01T10:17:08.084Z,14.77
2022-09-01T10:19:40.335Z,14.85
2022-09-01T10:22:10.505Z,14.78
2022-09-01T10:24:44.727Z,14.66
2022-09-01T10:27:19.645Z,14.62
2022-09-01T10:30:12.177Z,14.52
2022-09-01T10:32:52.507Z,14.35
2022-09-01T10:35:25.958Z,14.28
2022-09-01T10:37:58.049Z,14.19
2022-09-01T10:40:43.901Z,14.07
2022-09-01T10:43:37.260Z,13.99
2022-09-01T10:46:50.561Z,13.77
2022-09-01T10:49:59.547Z,13.67
2022-09-01T10:52:55.514Z,13.75
2022-09-01T10:55:33.382Z,13.77
2022-09-01T10:59:32.038Z,13.74
2022-09-01T11:01:41.097Z,13.73
2022-09-01T11:03:56.399Z,13.86
2022-09-01T11:07:11.723Z,14.02
2022-09-01T11:09:35.742Z,14.13
2022-09-01T11:12:29.449Z,14.18
2022-09-01T11:15:01.040Z,14.26
2022-09-01T11:17:33.094Z,14.30
2022-09-01T11:20:08.888Z,14.23
2022-09-01T11:22:41.620Z,14.24
2022-09-01T11:25:38.518Z,14.21
2022-09-01T11:28:45.019Z,14.15
2022-09-01T11:31:24.851Z,14.13
2022-09-01T11:34:04.960Z,14.16
2022-09-01T11:36:35.920Z,14.15
2022-09-01T11:39:12.400Z,14.26
2022-09-01T11:41:57.541Z,14.34
2022-09-01T11:44:38.370Z,14.38
2022-09-01T11:47:14.371Z,14.39
2022-09-01T11:49:51.136Z,14.42
2022-09-01T11:52:20.850Z,14.44
2022-09-01T11:54:51.292Z,14.42
2022-09-01T11:57:21.209Z,14.45
2022-09-01T11:59:49.198Z,14.48
2022-09-01T12:02:25.305Z,14.54
2022-09-01T12:04:55.469Z,14.61
2022-09-01T12:07:40.102Z,14.59
2022-09-01T12:10:18.479Z,14.66
2022-09-01T12:12:46.321Z,14.77
2022-09-01T12:15:22.079Z,14.94
2022-09-01T12:17:51.974Z,14.83
2022-09-01T12:20:31.097Z,14.65
2022-09-01T12:23:02.328Z,14.44
2022-09-01T12:25:32.973Z,14.25
2022-09-01T12:28:02.134Z,14.23
2022-09-01T12:30:30.739Z,14.09
2022-09-01T12:33:34.038Z,14.08
2022-09-01T12:36:34.537Z,14.03
2022-09-01T12:39:21.404Z,13.98
2022-09-01T12:42:03.131Z,13.98
2022-09-01T12:44:34.484Z,14.06
2022-09-01T12:47:05.121Z,14.09
2022-09-01T12:49:47.875Z,14.14
2022-09-01T12:52:26.082Z,14.13
2022-09-01T12:55:09.167Z,14.14
2022-09-01T12:57:38.986Z,14.12
2022-09-01T13:00:15.499Z,14.06
2022-09-01T13:02:45.847Z,14.18
2022-09-01T13:05:30.615Z,14.14
2022-09-01T13:08:00.958Z,14.25
2022-09-01T13:10:33.109Z,14.28
2022-09-01T13:13:02.031Z,14.34
2022-09-01T13:15:31.123Z,14.42
2022-09-01T13:17:59.516Z,14.54
2022-09-01T13:20:28.723Z,14.62
2022-09-01T13:22:56.795Z,14.64
2022-09-01T13:25:25.324Z,14.69
2022-09-01T13:27:54.883Z,14.72
2022-09-01T13:30:27.216Z,14.76
2022-09-01T13:35:45.071Z,15.00
2022-09-01T13:38:16.852Z,15.07
2022-09-01T13:40:46.558Z,15.00
2022-09-01T13:43:15.427Z,14.88
2022-09-01T13:45:45.876Z,14.86
2022-09-01T13:48:16.684Z,14.80
2022-09-01T13:51:20.788Z,14.75
2022-09-01T13:53:48.631Z,14.84
2022-09-01T13:56:18.872Z,14.94
2022-09-01T13:58:48.424Z,14.94
2022-09-01T14:01:19.237Z,14.88
2022-09-01T14:03:51.845Z,14.72
2022-09-01T14:06:21.527Z,14.83
2022-09-01T14:08:52.526Z,14.87
2022-09-01T14:11:20.918Z,14.88
2022-09-01T14:13:51.431Z,14.88
2022-09-01T14:16:19.309Z,14.78
2022-09-01T14:18:47.124Z,14.83
2022-09-01T14:21:17.251Z,14.81
2022-09-01T14:23:46.919Z,14.79
2022-09-01T14:26:17.826Z,14.77
2022-09-01T14:28:48.490Z,14.75
2022-09-01T14:31:19.015Z,14.75
2022-09-01T14:33:46.640Z,14.71
2022-09-01T14:36:20.035Z,14.83
2022-09-01T14:38:50.247Z,14.85
2022-09-01T14:41:21.953Z,14.80
2022-09-01T14:43:50.375Z,14.84
2022-09-01T14:46:19.395Z,14.92
2022-09-01T14:48:48.833Z,14.96
2022-09-01T14:51:23.674Z,14.43
2022-09-01T14:53:54.751Z,13.88
2022-09-01T14:56:23.331Z,13.64
2022-09-01T14:58:58.932Z,13.53
2022-09-01T15:01:35.309Z,13.57
2022-09-01T15:04:03.856Z,13.54
2022-09-01T15:06:31.834Z,13.49
2022-09-01T15:09:02.323Z,13.51
2022-09-01T15:11:32.857Z,13.41
2022-09-01T15:14:03.819Z,13.44
2022-09-01T15:16:35.611Z,13.51
2022-09-01T15:19:06.986Z,13.57
2022-09-01T15:21:34.883Z,13.57
2022-09-01T15:24:05.015Z,13.54
2022-09-01T15:26:33.233Z,13.60
2022-09-01T15:29:02.005Z,13.66
2022-09-01T15:31:33.386Z,13.66
2022-09-01T15:34:05.110Z,13.69
2022-09-01T15:36:36.524Z,13.66
2022-09-01T15:39:05.922Z,13.61
2022-09-01T15:41:34.671Z,13.48
2022-09-01T15:44:05.459Z,13.39
2022-09-01T15:46:33.852Z,13.34
2022-09-01T15:49:03.802Z,13.26
2022-09-01T15:51:34.760Z,13.24
2022-09-01T15:54:06.675Z,13.24
2022-09-01T15:56:34.753Z,13.17
2022-09-01T15:59:04.518Z,13.17
2022-09-01T16:01:36.251Z,13.13
2022-09-01T16:04:07.428Z,13.15
2022-09-01T16:06:36.299Z,13.20
2022-09-01T16:09:06.342Z,13.17
2022-09-01T16:11:35.027Z,13.15
2022-09-01T16:14:02.916Z,13.16
2022-09-01T16:16:41.447Z,13.20
2022-09-01T16:19:28.380Z,13.23
2022-09-01T16:22:07.038Z,13.28
2022-09-01T16:24:43.003Z,13.29
2022-09-01T16:27:16.426Z,13.27
2022-09-01T16:29:49.118Z,13.31
2022-09-01T16:32:19.950Z,13.29
2022-09-01T16:34:48.318Z,13.32
2022-09-01T16:37:28.833Z,13.31
2022-09-01T16:40:05.771Z,13.23
2022-09-01T16:42:47.160Z,13.30
2022-09-01T16:45:36.844Z,13.33
2022-09-01T16:48:15.027Z,13.31
2022-09-01T16:50:54.475Z,13.30
2022-09-01T16:53:35.519Z,13.18
2022-09-01T16:56:08.536Z,13.13
2022-09-01T16:58:49.223Z,13.15
2022-09-01T17:01:25.952Z,13.10
2022-09-01T17:04:02.398Z,13.07
2022-09-01T17:06:36.577Z,13.05
2022-09-01T17:09:11.588Z,12.96
2022-09-01T17:11:49.611Z,12.95
2022-09-01T17:14:27.910Z,12.87
2022-09-01T17:17:06.823Z,12.78
2022-09-01T17:19:35.467Z,12.75
2022-09-01T17:22:07.118Z,12.69
2022-09-01T17:24:38.565Z,12.65
2022-09-01T17:27:15.082Z,12.64
2022-09-01T17:29:45.883Z,12.57
2022-09-01T17:32:36.508Z,12.53
2022-09-01T17:35:15.078Z,12.46
2022-09-01T17:37:57.127Z,12.43
2022-09-01T17:40:33.023Z,12.40
2022-09-01T17:43:10.415Z,12.34
2022-09-01T17:45:51.226Z,12.31
2022-09-01T17:48:25.642Z,12.27
2022-09-01T17:51:05.467Z,12.20
2022-09-01T17:53:43.330Z,12.13
2022-09-01T17:56:27.383Z,12.06
2022-09-01T17:59:05.039Z,12.00
2022-09-01T18:01:40.029Z,11.95
2022-09-01T18:04:25.942Z,11.87
2022-09-01T18:06:59.547Z,11.87
2022-09-01T18:09:29.992Z,11.81
2022-09-01T18:12:00.900Z,11.68
2022-09-01T18:14:37.083Z,11.67
2022-09-01T18:17:11.975Z,11.69
2022-09-01T18:19:42.299Z,11.65
2022-09-01T18:22:15.515Z,11.55
2022-09-01T18:24:51.325Z,11.55
2022-09-01T18:27:19.198Z,11.52
2022-09-01T18:29:53.764Z,11.52
2022-09-01T18:32:42.011Z,11.50
2022-09-01T18:35:20.602Z,11.50
2022-09-01T18:38:03.559Z,11.46
2022-09-01T18:40:34.765Z,11.44
2022-09-01T18:43:16.184Z,11.42
2022-09-01T18:45:51.117Z,11.42
2022-09-01T18:48:31.351Z,11.36
2022-09-01T18:51:07.412Z,11.33
2022-09-01T18:53:43.409Z,11.33
2022-09-01T18:56:21.403Z,11.28
2022-09-01T18:59:01.191Z,11.23
2022-09-01T19:01:34.692Z,11.21
2022-09-01T19:04:11.375Z,11.17
2022-09-01T19:06:53.224Z,11.16
2022-09-01T19:09:29.737Z,11.14
2022-09-01T19:12:15.983Z,11.12
2022-09-01T19:14:52.239Z,11.08
2022-09-01T19:17:35.688Z,11.09
2022-09-01T19:20:06.843Z,11.07
2022-09-01T19:22:44.412Z,11.05
2022-09-01T19:25:32.270Z,11.02
2022-09-01T19:28:05.950Z,10.99
2022-09-01T19:30:35.706Z,11.02
2022-09-01T19:33:06.788Z,11.05
2022-09-01T19:35:36.646Z,11.04
2022-09-01T19:38:06.848Z,11.04
2022-09-01T19:40:38.868Z,11.01
2022-09-01T19:43:09.364Z,10.99
2022-09-01T19:45:41.890Z,10.92
2022-09-01T19:48:16.075Z,10.97
2022-09-01T19:50:51.034Z,10.94
2022-09-01T19:53:32.425Z,10.93
2022-09-01T19:56:08.203Z,10.93
2022-09-01T19:58:45.842Z,10.93
2022-09-01T20:01:17.070Z,10.91
2022-09-01T20:03:51.867Z,10.89
2022-09-01T20:06:33.461Z,10.88
2022-09-01T20:09:08.754Z,10.86
2022-09-01T20:11:47.671Z,10.88
2022-09-01T20:14:34.723Z,10.89
2022-09-01T20:17:06.783Z,10.88
2022-09-01T20:19:43.501Z,10.92
2022-09-01T20:22:23.838Z,10.94
2022-09-01T20:25:08.504Z,10.96
2022-09-01T20:27:46.900Z,11.01
2022-09-01T20:30:18.952Z,11.02
2022-09-01T20:32:52.219Z,11.01
2022-09-01T20:35:25.854Z,11.00
2022-09-01T20:37:59.844Z,11.00
2022-09-01T20:40:30.867Z,10.98
2022-09-01T20:43:18.472Z,10.95
2022-09-01T20:45:46.939Z,10.94
2022-09-01T20:48:17.259Z,10.89
2022-09-01T20:50:52.940Z,10.85
2022-09-01T20:53:32.931Z,10.85
2022-09-01T20:56:08.747Z,10.82
2022-09-01T20:58:41.471Z,10.85
2022-09-01T21:01:18.112Z,10.85
2022-09-01T21:04:05.915Z,10.77
2022-09-01T21:06:48.539Z,10.79
2022-09-01T21:09:25.434Z,10.73
2022-09-01T21:11:58.779Z,10.73
2022-09-01T21:14:40.880Z,10.72
2022-09-01T21:17:19.547Z,10.70
2022-09-01T21:19:53.397Z,10.60
2022-09-01T21:22:22.963Z,10.64
2022-09-01T21:24:51.326Z,10.62
2022-09-01T21:27:22.706Z,10.59
2022-09-01T21:29:56.653Z,10.59
2022-09-01T21:32:25.271Z,10.64
2022-09-01T21:34:54.165Z,10.62
2022-09-01T21:37:24.155Z,10.61
2022-09-01T21:39:54.098Z,10.65
2022-09-01T21:42:25.382Z,10.66
2022-09-01T21:44:55.257Z,10.69
2022-09-01T21:47:23.391Z,10.64
2022-09-01T21:49:51.314Z,10.70
2022-09-01T21:52:19.308Z,10.73
2022-09-01T21:54:48.575Z,10.72
2022-09-01T21:57:16.670Z,10.71
2022-09-01T21:59:44.684Z,10.73
2022-09-01T22:02:13.040Z,10.75
2022-09-01T22:04:41.056Z,10.80
2022-09-01T22:07:21.099Z,10.83
2022-09-01T22:09:50.398Z,10.83
2022-09-01T22:12:18.342Z,10.80
2022-09-01T22:14:46.220Z,10.79
2022-09-01T22:17:14.084Z,10.80
2022-09-01T22:19:42.074Z,10.82
2022-09-01T22:22:12.840Z,10.81
2022-09-01T22:24:40.734Z,10.80
2022-09-01T22:27:10.032Z,10.82
2022-09-01T22:29:38.035Z,10.82
2022-09-01T22:32:06.180Z,10.82
2022-09-01T22:34:34.452Z,10.82
2022-09-01T22:37:02.545Z,10.83
2022-09-01T22:39:30.510Z,10.78
2022-09-01T22:41:58.431Z,10.77
2022-09-01T22:44:27.720Z,10.74
2022-09-01T22:46:55.566Z,10.75
2022-09-01T22:49:23.467Z,10.71
2022-09-01T22:51:51.479Z,10.65
2022-09-01T22:54:19.393Z,10.61
2022-09-01T22:56:49.858Z,10.57
2022-09-01T22:59:17.609Z,10.40
2022-09-01T23:01:48.736Z,10.41
2022-09-01T23:04:17.508Z,10.38
2022-09-01T23:06:49.923Z,10.29
2022-09-01T23:09:18.999Z,10.28
2022-09-01T23:11:47.330Z,10.26
2022-09-01T23:14:15.414Z,10.26
2022-09-01T23:16:43.715Z,10.22
2022-09-01T23:19:12.998Z,10.19
2022-09-01T23:21:41.086Z,10.19
2022-09-01T23:24:09.174Z,10.17
2022-09-01T23:26:37.359Z,10.17
2022-09-01T23:29:06.044Z,10.15
2022-09-01T23:31:37.116Z,10.12
2022-09-01T23:34:06.042Z,10.11
2022-09-01T23:36:36.087Z,10.09
2022-09-01T23:39:06.487Z,10.07
2022-09-01T23:41:36.404Z,10.05
2022-09-01T23:44:09.484Z,10.04
2022-09-01T23:46:40.177Z,10.04
2022-09-01T23:49:08.241Z,10.08
2022-09-01T23:51:38.885Z,10.06
2022-09-01T23:54:07.365Z,10.08
2022-09-01T23:56:35.267Z,10.03
2022-09-01T23:59:03.467Z,10.03
